createdAt,value
2022-11-09T00:01:44.880Z,12.94
2022-11-09T00:04:46.299Z,12.89
2022-11-09T00:07:47.675Z,12.85
2022-11-09T00:10:49.058Z,12.83
2022-11-09T00:13:50.502Z,12.77
2022-11-09T00:16:51.900Z,12.73
2022-11-09T00:19:53.379Z,12.75
2022-11-09T00:22:54.815Z,12.78
2022-11-09T00:26:00.796Z,12.77
2022-11-09T00:29:02.185Z,12.74
2022-11-09T00:32:03.734Z,12.76
2022-11-09T00:35:05.578Z,12.71
2022-11-09T00:38:09.748Z,12.68
2022-11-09T00:41:13.055Z,12.68
2022-11-09T00:44:14.504Z,12.65
2022-11-09T00:47:15.915Z,12.62
2022-11-09T00:50:17.450Z,12.59
2022-11-09T00:53:20.775Z,12.59
2022-11-09T00:56:22.820Z,12.62
2022-11-09T00:59:24.322Z,12.56
2022-11-09T01:02:25.898Z,12.53
2022-11-09T01:05:27.415Z,12.50
2022-11-09T01:08:30.097Z,12.45
2022-11-09T01:11:31.503Z,12.36
2022-11-09T01:14:32.915Z,12.38
2022-11-09T01:17:34.363Z,12.32
2022-11-09T01:20:39.988Z,12.31
2022-11-09T01:23:42.847Z,12.29
2022-11-09T01:26:44.332Z,12.31
2022-11-09T01:29:47.672Z,12.28
2022-11-09T01:32:49.056Z,12.25
2022-11-09T01:35:50.463Z,12.21
2022-11-09T01:38:52.014Z,12.23
2022-11-09T01:41:53.463Z,12.17
2022-11-09T01:45:20.629Z,12.12
2022-11-09T01:48:36.393Z,12.06
2022-11-09T01:51:42.276Z,12.11
2022-11-09T01:54:52.051Z,12.10
2022-11-09T01:58:02.837Z,12.09
2022-11-09T02:01:05.314Z,12.12
2022-11-09T02:04:12.847Z,12.07
2022-11-09T02:07:14.648Z,12.10
2022-11-09T02:10:28.813Z,12.07
2022-11-09T02:13:33.741Z,12.11
2022-11-09T02:16:41.772Z,12.14
2022-11-09T02:19:43.344Z,12.11
2022-11-09T02:22:45.081Z,12.12
2022-11-09T02:26:09.292Z,12.15
2022-11-09T02:29:16.016Z,12.19
2022-11-09T02:32:21.599Z,12.19
2022-11-09T02:35:23.458Z,12.20
2022-11-09T02:38:25.025Z,12.24
2022-11-09T02:41:27.620Z,12.23
2022-11-09T02:44:30.380Z,12.25
2022-11-09T02:47:31.873Z,12.26
2022-11-09T02:50:33.523Z,12.25
2022-11-09T02:53:35.025Z,12.21
2022-11-09T02:56:36.715Z,12.21
2022-11-09T02:59:38.149Z,12.23
2022-11-09T03:02:41.592Z,12.25
2022-11-09T03:05:44.067Z,12.21
2022-11-09T03:08:46.982Z,12.25
2022-11-09T03:11:50.431Z,12.27
2022-11-09T03:14:52.035Z,12.28
2022-11-09T03:17:53.789Z,12.30
2022-11-09T03:21:01.979Z,12.28
2022-11-09T03:24:03.599Z,12.30
2022-11-09T03:27:05.211Z,12.32
2022-11-09T03:30:07.655Z,12.30
2022-11-09T03:33:10.268Z,12.35
2022-11-09T03:36:13.465Z,12.39
2022-11-09T03:39:14.997Z,12.42
2022-11-09T03:42:16.457Z,12.43
2022-11-09T03:45:18.309Z,12.46
2022-11-09T03:48:19.710Z,12.50
2022-11-09T03:51:21.225Z,12.50
2022-11-09T03:54:22.609Z,12.50
2022-11-09T03:57:24.024Z,12.52
2022-11-09T04:00:25.577Z,12.53
2022-11-09T04:03:26.996Z,12.58
2022-11-09T04:06:28.497Z,12.62
2022-11-09T04:09:29.900Z,12.64
2022-11-09T04:12:31.640Z,12.64
2022-11-09T04:15:33.071Z,12.64
2022-11-09T04:18:34.552Z,12.65
2022-11-09T04:21:36.141Z,12.68
2022-11-09T04:24:37.524Z,12.68
2022-11-09T04:27:38.933Z,12.71
2022-11-09T04:30:40.546Z,12.71
2022-11-09T04:33:41.928Z,12.70
2022-11-09T04:36:44.309Z,12.69
2022-11-09T04:39:45.713Z,12.72
2022-11-09T04:42:47.113Z,12.72
2022-11-09T04:45:48.568Z,12.71
2022-11-09T04:48:50.200Z,12.72
2022-11-09T04:51:51.683Z,12.70
2022-11-09T04:54:53.092Z,12.70
2022-11-09T04:57:54.485Z,12.69
2022-11-09T05:01:03.210Z,12.66
2022-11-09T05:04:04.760Z,12.66
2022-11-09T05:07:06.343Z,12.68
2022-11-09T05:10:08.053Z,12.68
2022-11-09T05:13:11.817Z,12.64
2022-11-09T05:16:13.271Z,12.67
2022-11-09T05:19:14.766Z,12.63
2022-11-09T05:22:34.869Z,12.61
2022-11-09T05:25:36.309Z,12.61
2022-11-09T05:28:38.148Z,12.64
2022-11-09T05:31:40.365Z,12.63
2022-11-09T05:34:41.776Z,12.59
2022-11-09T05:37:46.911Z,12.59
2022-11-09T05:40:52.293Z,12.63
2022-11-09T05:43:53.759Z,12.58
2022-11-09T05:46:55.158Z,12.58
2022-11-09T05:49:56.543Z,12.59
2022-11-09T05:53:01.945Z,12.61
2022-11-09T05:56:09.276Z,12.60
2022-11-09T05:59:10.913Z,12.66
2022-11-09T06:02:12.389Z,12.76
2022-11-09T06:05:14.504Z,12.76
2022-11-09T06:08:15.936Z,12.75
2022-11-09T06:11:23.670Z,12.76
2022-11-09T06:14:25.872Z,12.82
2022-11-09T06:17:27.288Z,12.81
2022-11-09T06:20:28.853Z,12.81
2022-11-09T06:23:30.813Z,12.83
2022-11-09T06:26:32.325Z,12.81
2022-11-09T06:29:33.771Z,12.86
2022-11-09T06:32:35.227Z,12.86
2022-11-09T06:35:36.970Z,12.88
2022-11-09T06:38:38.830Z,12.83
2022-11-09T06:41:44.610Z,12.88
2022-11-09T06:44:48.571Z,12.89
2022-11-09T06:47:49.952Z,12.86
2022-11-09T06:50:51.360Z,12.89
2022-11-09T06:53:53.360Z,12.87
2022-11-09T06:56:55.254Z,12.85
2022-11-09T06:59:56.667Z,12.89
2022-11-09T07:02:58.185Z,12.88
2022-11-09T07:06:05.308Z,12.96
2022-11-09T07:09:07.073Z,13.01
2022-11-09T07:12:09.857Z,13.02
2022-11-09T07:15:12.157Z,13.00
2022-11-09T07:18:13.595Z,13.04
2022-11-09T07:21:15.116Z,13.07
2022-11-09T07:24:16.634Z,13.11
2022-11-09T07:27:18.027Z,13.06
2022-11-09T07:30:19.611Z,13.08
2022-11-09T07:33:22.681Z,13.06
2022-11-09T07:36:24.380Z,13.04
2022-11-09T07:39:25.787Z,13.01
2022-11-09T07:42:27.206Z,13.04
2022-11-09T07:45:30.195Z,13.06
2022-11-09T07:48:31.917Z,13.03
2022-11-09T07:51:34.793Z,13.05
2022-11-09T07:54:36.389Z,13.03
2022-11-09T07:57:37.900Z,13.06
2022-11-09T08:00:41.237Z,13.03
2022-11-09T08:03:42.699Z,13.07
2022-11-09T08:06:44.132Z,13.05
2022-11-09T08:09:45.610Z,13.07
2022-11-09T08:12:55.170Z,13.09
2022-11-09T08:15:56.714Z,13.11
2022-11-09T08:18:58.118Z,13.17
2022-11-09T08:22:00.306Z,13.18
2022-11-09T08:25:01.695Z,13.21
2022-11-09T08:28:03.840Z,13.23
2022-11-09T08:31:07.933Z,13.24
2022-11-09T08:34:14.131Z,13.25
2022-11-09T08:37:16.344Z,13.28
2022-11-09T08:40:21.323Z,13.27
2022-11-09T08:43:22.760Z,13.26
2022-11-09T08:46:24.251Z,13.30
2022-11-09T08:49:25.670Z,13.30
2022-11-09T08:52:27.200Z,13.36
2022-11-09T08:55:29.453Z,13.36
2022-11-09T08:58:30.913Z,13.38
2022-11-09T09:01:32.401Z,13.41
2022-11-09T09:04:33.812Z,13.44
2022-11-09T09:07:35.214Z,13.48
2022-11-09T09:10:36.626Z,13.54
2022-11-09T09:13:43.055Z,13.65
2022-11-09T09:16:45.395Z,13.84
2022-11-09T09:19:49.975Z,13.93
2022-11-09T09:22:51.803Z,14.10
2022-11-09T09:25:56.408Z,14.25
2022-11-09T09:29:00.061Z,14.33
2022-11-09T09:32:01.569Z,14.44
2022-11-09T09:35:03.439Z,14.39
2022-11-09T09:38:04.973Z,14.41
2022-11-09T09:41:07.201Z,14.41
2022-11-09T09:44:25.124Z,14.54
2022-11-09T09:47:49.661Z,14.68
2022-11-09T09:50:59.965Z,14.75
2022-11-09T09:54:23.131Z,14.88
2022-11-09T09:57:28.839Z,14.95
2022-11-09T10:00:31.744Z,15.05
2022-11-09T10:03:33.229Z,15.20
2022-11-09T10:06:49.809Z,15.29
2022-11-09T10:10:09.815Z,15.36
2022-11-09T10:13:17.096Z,15.54
2022-11-09T10:16:33.770Z,15.65
2022-11-09T10:20:05.235Z,15.61
2022-11-09T10:23:12.271Z,15.52
2022-11-09T10:26:22.899Z,15.57
2022-11-09T10:29:34.857Z,15.53
2022-11-09T10:32:36.561Z,15.47
2022-11-09T10:35:45.042Z,15.53
2022-11-09T10:38:50.848Z,15.64
2022-11-09T10:42:11.514Z,15.74
2022-11-09T10:45:40.894Z,15.72
2022-11-09T10:49:19.221Z,15.77
2022-11-09T10:52:47.340Z,15.85
2022-11-09T10:56:20.445Z,15.96
2022-11-09T10:59:52.035Z,15.96
2022-11-09T11:03:17.943Z,15.84
2022-11-09T11:06:38.316Z,15.93
2022-11-09T11:10:16.808Z,15.97
2022-11-09T11:13:36.890Z,15.99
2022-11-09T11:16:56.675Z,16.23
2022-11-09T11:20:29.033Z,16.30
2022-11-09T11:24:16.928Z,16.38
2022-11-09T11:27:42.946Z,16.44
2022-11-09T11:31:04.177Z,16.53
2022-11-09T11:34:53.378Z,16.47
2022-11-09T11:38:37.550Z,16.46
2022-11-09T11:42:14.573Z,16.47
2022-11-09T11:45:42.897Z,16.46
2022-11-09T11:49:31.116Z,16.52
2022-11-09T11:53:06.482Z,16.53
2022-11-09T11:56:34.695Z,16.58
2022-11-09T12:00:15.998Z,16.61
2022-11-09T12:03:51.729Z,16.57
2022-11-09T12:07:41.189Z,16.50
2022-11-09T12:11:08.836Z,16.50
2022-11-09T12:15:11.153Z,16.42
2022-11-09T12:18:45.695Z,16.34
2022-11-09T12:22:24.418Z,16.31
2022-11-09T12:25:56.997Z,16.30
2022-11-09T12:29:21.816Z,16.32
2022-11-09T12:32:59.088Z,16.36
2022-11-09T12:36:25.966Z,16.32
2022-11-09T12:39:50.223Z,16.28
2022-11-09T12:43:31.741Z,16.37
2022-11-09T12:47:00.695Z,16.32
2022-11-09T12:50:23.371Z,16.31
2022-11-09T12:53:43.362Z,16.35
2022-11-09T12:57:10.804Z,16.30
2022-11-09T13:00:33.773Z,16.27
2022-11-09T13:03:56.797Z,16.31
2022-11-09T13:07:26.236Z,16.30
2022-11-09T13:10:46.582Z,16.30
2022-11-09T13:14:21.690Z,16.34
2022-11-09T13:17:55.578Z,16.28
2022-11-09T13:21:21.868Z,16.24
2022-11-09T13:24:59.671Z,16.20
2022-11-09T13:28:28.852Z,16.19
2022-11-09T13:32:05.113Z,16.26
2022-11-09T13:35:40.294Z,16.29
2022-11-09T13:39:37.932Z,16.31
2022-11-09T13:43:09.872Z,16.23
2022-11-09T13:46:36.198Z,16.05
2022-11-09T13:49:56.196Z,16.09
2022-11-09T13:53:53.205Z,16.05
2022-11-09T13:57:13.618Z,16.09
2022-11-09T14:00:33.584Z,16.05
2022-11-09T14:03:53.542Z,16.03
2022-11-09T14:07:25.469Z,15.94
2022-11-09T14:10:56.054Z,15.91
2022-11-09T14:14:18.922Z,15.89
2022-11-09T14:18:07.843Z,15.83
2022-11-09T14:21:37.898Z,15.73
2022-11-09T14:24:57.855Z,15.81
2022-11-09T14:28:27.173Z,15.79
2022-11-09T14:31:47.069Z,15.86
2022-11-09T14:35:13.815Z,15.83
2022-11-09T14:38:36.016Z,15.87
2022-11-09T14:41:57.032Z,15.86
2022-11-09T14:45:17.983Z,15.81
2022-11-09T14:48:43.306Z,15.77
2022-11-09T14:52:05.647Z,15.76
2022-11-09T14:55:26.032Z,15.76
2022-11-09T14:58:47.898Z,15.75
2022-11-09T15:02:11.907Z,15.74
2022-11-09T15:05:39.704Z,15.69
2022-11-09T15:09:14.869Z,15.58
2022-11-09T15:12:36.048Z,15.61
2022-11-09T15:15:56.412Z,15.60
2022-11-09T15:19:39.670Z,15.59
2022-11-09T15:23:05.814Z,15.56
2022-11-09T15:26:39.079Z,15.50
2022-11-09T15:29:59.253Z,15.48
2022-11-09T15:33:19.375Z,15.40
2022-11-09T15:36:44.894Z,15.18
2022-11-09T15:40:10.332Z,15.06
2022-11-09T15:43:30.231Z,15.03
2022-11-09T15:46:52.495Z,15.21
2022-11-09T15:50:27.250Z,15.20
2022-11-09T15:53:48.413Z,15.23
2022-11-09T15:57:14.709Z,15.22
2022-11-09T16:00:35.061Z,15.25
2022-11-09T16:03:54.931Z,15.18
2022-11-09T16:07:16.562Z,15.12
2022-11-09T16:10:40.228Z,15.11
2022-11-09T16:14:01.488Z,15.08
2022-11-09T16:17:21.705Z,15.00
2022-11-09T16:20:42.145Z,15.01
2022-11-09T16:24:02.395Z,14.90
2022-11-09T16:27:48.544Z,14.98
2022-11-09T16:31:02.903Z,14.91
2022-11-09T16:34:23.352Z,14.86
2022-11-09T16:37:44.607Z,14.88
2022-11-09T16:41:05.262Z,14.78
2022-11-09T16:44:25.557Z,14.75
2022-11-09T16:47:50.425Z,14.70
2022-11-09T16:51:10.936Z,14.84
2022-11-09T16:54:31.594Z,14.87
2022-11-09T16:57:53.787Z,14.88
2022-11-09T17:01:16.479Z,14.98
2022-11-09T17:04:41.697Z,15.01
2022-11-09T17:08:01.595Z,14.96
2022-11-09T17:11:23.071Z,14.89
2022-11-09T17:14:43.279Z,14.90
2022-11-09T17:18:03.535Z,14.92
2022-11-09T17:21:28.608Z,14.81
2022-11-09T17:24:49.410Z,14.81
2022-11-09T17:28:09.437Z,14.74
2022-11-09T17:31:30.261Z,14.66
2022-11-09T17:34:50.888Z,14.49
2022-11-09T17:38:11.161Z,14.24
2022-11-09T17:41:31.502Z,14.12
2022-11-09T17:44:51.700Z,14.13
2022-11-09T17:48:11.673Z,14.01
2022-11-09T17:51:32.401Z,13.97
2022-11-09T17:54:52.641Z,13.94
2022-11-09T17:58:12.806Z,13.99
2022-11-09T18:01:39.406Z,13.83
2022-11-09T18:05:01.440Z,13.79
2022-11-09T18:08:21.761Z,13.68
2022-11-09T18:11:42.157Z,13.77
2022-11-09T18:15:02.766Z,13.68
2022-11-09T18:18:23.691Z,13.62
2022-11-09T18:21:47.429Z,13.59
2022-11-09T18:25:07.500Z,13.67
2022-11-09T18:28:27.625Z,13.65
2022-11-09T18:31:47.761Z,13.62
2022-11-09T18:35:07.776Z,13.62
2022-11-09T18:38:29.804Z,13.63
2022-11-09T18:41:52.022Z,13.68
2022-11-09T18:45:12.278Z,13.56
2022-11-09T18:48:32.571Z,13.57
2022-11-09T18:51:52.578Z,13.52
2022-11-09T18:55:12.812Z,13.49
2022-11-09T18:58:33.408Z,13.57
2022-11-09T19:01:53.390Z,13.62
2022-11-09T19:05:13.257Z,13.62
2022-11-09T19:08:52.340Z,13.58
2022-11-09T19:12:12.481Z,13.59
2022-11-09T19:15:38.503Z,13.60
2022-11-09T19:18:58.647Z,13.59
2022-11-09T19:22:19.066Z,13.61
2022-11-09T19:25:39.350Z,13.62
2022-11-09T19:28:59.337Z,13.64
2022-11-09T19:32:19.378Z,13.63
2022-11-09T19:35:39.272Z,13.67
2022-11-09T19:39:01.037Z,13.67
2022-11-09T19:42:21.307Z,13.65
2022-11-09T19:45:41.941Z,13.64
2022-11-09T19:49:03.627Z,13.62
2022-11-09T19:52:23.630Z,13.57
2022-11-09T19:55:44.206Z,13.45
2022-11-09T19:59:05.569Z,13.45
2022-11-09T20:02:25.830Z,13.45
2022-11-09T20:05:45.996Z,13.51
2022-11-09T20:09:06.322Z,13.53
2022-11-09T20:12:44.784Z,13.53
2022-11-09T20:16:07.488Z,13.47
2022-11-09T20:19:27.533Z,13.42
2022-11-09T20:22:47.498Z,13.44
2022-11-09T20:26:09.448Z,13.43
2022-11-09T20:29:29.596Z,13.45
2022-11-09T20:32:49.694Z,13.34
2022-11-09T20:36:09.626Z,13.33
2022-11-09T20:39:29.769Z,13.23
2022-11-09T20:42:49.593Z,13.15
2022-11-09T20:46:15.965Z,13.19
2022-11-09T20:49:36.085Z,13.24
2022-11-09T20:52:55.840Z,13.28
2022-11-09T20:56:16.872Z,13.26
2022-11-09T20:59:37.041Z,13.27
2022-11-09T21:02:57.518Z,13.18
2022-11-09T21:06:18.317Z,13.15
2022-11-09T21:09:38.401Z,13.08
2022-11-09T21:12:58.335Z,13.09
2022-11-09T21:16:19.830Z,12.99
2022-11-09T21:19:39.806Z,13.05
2022-11-09T21:23:11.743Z,13.03
2022-11-09T21:26:50.424Z,13.04
2022-11-09T21:30:11.754Z,13.01
2022-11-09T21:33:31.724Z,13.03
2022-11-09T21:36:51.653Z,12.95
2022-11-09T21:40:11.844Z,12.90
2022-11-09T21:43:31.866Z,12.81
2022-11-09T21:46:51.744Z,12.81
2022-11-09T21:50:12.991Z,12.78
2022-11-09T21:53:36.909Z,12.78
2022-11-09T21:56:57.403Z,12.69
2022-11-09T22:00:18.245Z,12.59
2022-11-09T22:03:39.616Z,12.45
2022-11-09T22:06:59.705Z,12.48
2022-11-09T22:10:19.552Z,12.50
2022-11-09T22:13:59.035Z,12.50
2022-11-09T22:17:19.044Z,12.38
2022-11-09T22:20:57.062Z,12.26
2022-11-09T22:24:17.168Z,12.26
2022-11-09T22:27:37.090Z,12.31
2022-11-09T22:31:00.585Z,12.34
2022-11-09T22:34:20.788Z,12.36
2022-11-09T22:37:40.506Z,12.23
2022-11-09T22:41:01.887Z,12.26
2022-11-09T22:44:21.965Z,12.21
2022-11-09T22:47:41.803Z,12.15
2022-11-09T22:51:02.765Z,12.11
2022-11-09T22:54:22.865Z,12.09
2022-11-09T22:57:42.913Z,11.97
2022-11-09T23:01:13.297Z,11.90
2022-11-09T23:04:33.023Z,11.89
2022-11-09T23:07:54.768Z,11.86
2022-11-09T23:11:17.367Z,11.76
2022-11-09T23:14:55.923Z,11.60
2022-11-09T23:18:34.728Z,11.66
2022-11-09T23:21:54.705Z,11.69
2022-11-09T23:25:33.112Z,11.75
2022-11-09T23:28:53.603Z,11.86
2022-11-09T23:32:13.909Z,11.88
2022-11-09T23:35:34.564Z,11.88
2022-11-09T23:38:54.627Z,11.92
2022-11-09T23:42:14.520Z,11.98
2022-11-09T23:45:35.361Z,11.99
2022-11-09T23:48:55.544Z,11.89
2022-11-09T23:52:16.279Z,11.79
2022-11-09T23:55:37.237Z,11.87
2022-11-09T23:58:57.353Z,11.89
